Time;durP1;ratioP1;P1;durP2;ratioP2;P2;SDS_P1;SDS_P2;PMS_P1;PMS_P2;Temp;Humidity;BMP_temperature;BMP_pressure;BME280_temperature;BME280_humidity;BME280_pressure;Samples;Min_cycle;Max_cycle;Signal;HPM_P1;HPM_P2
2024/04/20 00:01:32;;;;;;;6.57;1.85;;;;;;;4.89;80.94;98165.72;4909496;28;102843;-71
2024/04/20 00:03:58;;;;;;;9.45;1.92;;;;;;;4.77;80.72;98165.88;4913172;28;104248;-70
2024/04/20 00:06:28;;;;;;;6.70;1.65;;;;;;;4.85;80.83;98165.16;4916062;28;103437;-70
2024/04/20 00:08:54;;;;;;;10.73;2.30;;;;;;;4.87;80.50;98168.44;4902426;28;103612;-69
2024/04/20 00:11:20;;;;;;;11.73;1.63;;;;;;;4.76;80.43;98166.84;4904805;28;103070;-70
2024/04/20 00:13:52;;;;;;;11.40;2.00;;;;;;;4.86;80.45;98166.81;4910355;28;105644;-70
2024/04/20 00:16:20;;;;;;;4.85;1.40;;;;;;;4.89;80.45;98176.19;4906587;28;103817;-71
2024/04/20 00:18:46;;;;;;;7.57;1.73;;;;;;;4.91;80.67;98169.84;4924614;28;104149;-71
2024/04/20 00:21:12;;;;;;;8.48;1.60;;;;;;;4.72;80.66;98168.09;4925144;28;103897;-71
2024/04/20 00:23:41;;;;;;;5.43;1.67;;;;;;;4.63;80.64;98176.84;4903300;28;105211;-70
2024/04/20 00:26:07;;;;;;;8.90;1.65;;;;;;;4.63;80.92;98180.28;4921229;28;103272;-70
2024/04/20 00:28:35;;;;;;;6.50;1.95;;;;;;;4.68;80.46;98179.88;4905644;28;102944;-71
2024/04/20 00:31:02;;;;;;;10.55;1.60;;;;;;;4.65;80.80;98174.88;4904208;28;103339;-70
2024/04/20 00:33:30;;;;;;;6.72;1.83;;;;;;;4.65;79.62;98185.38;4921494;28;105199;-72
2024/04/20 00:35:58;;;;;;;10.57;1.90;;;;;;;4.61;80.02;98191.88;4920308;28;103450;-71
2024/04/20 00:38:23;;;;;;;4.35;1.67;;;;;;;4.47;79.73;98187.94;4920273;28;104063;-71
2024/04/20 00:40:54;;;;;;;13.25;1.70;;;;;;;4.48;80.04;98195.66;4906524;28;102894;-72
2024/04/20 00:43:20;;;;;;;10.77;1.73;;;;;;;4.50;79.52;98198.13;4914177;28;105349;-71
2024/04/20 00:45:47;;;;;;;6.40;2.05;;;;;;;4.56;79.37;98199.34;4917380;28;103524;-71
2024/04/20 00:48:15;;;;;;;5.57;1.70;;;;;;;4.58;79.13;98194.81;4918900;28;103879;-71
2024/04/20 00:50:42;;;;;;;11.30;2.25;;;;;;;4.62;79.77;98199.63;4906895;28;102716;-71
2024/04/20 00:53:14;;;;;;;8.02;1.83;;;;;;;4.51;79.27;98198.94;4920857;28;105800;-72
2024/04/20 00:55:41;;;;;;;8.07;1.67;;;;;;;4.52;80.06;98200.59;4920107;28;103515;-71
2024/04/20 00:58:09;;;;;;;6.97;1.55;;;;;;;4.54;79.70;98203.94;4894834;28;102870;-72
2024/04/20 01:00:40;;;;;;;6.50;1.27;;;;;;;4.54;79.49;98203.94;4914261;28;104052;-72
2024/04/20 01:03:06;;;;;;;7.85;1.70;;;;;;;4.51;78.76;98198.94;4906721;28;104188;-71
2024/04/20 01:05:35;;;;;;;8.55;1.70;;;;;;;4.40;79.03;98213.91;4932535;28;103121;-73
2024/04/20 01:08:01;;;;;;;8.77;1.75;;;;;;;4.43;79.52;98210.97;4919313;28;102943;-72
2024/04/20 01:10:31;;;;;;;12.05;1.85;;;;;;;4.34;78.95;98213.59;4923475;28;103000;-71
2024/04/20 01:13:08;;;;;;;6.47;1.50;;;;;;;4.32;79.77;98205.88;4905026;28;105407;-70
2024/04/20 01:15:37;;;;;;;6.78;1.10;;;;;;;4.38;79.57;98200.09;4904314;28;104554;-71
2024/04/20 01:18:03;;;;;;;6.97;1.50;;;;;;;4.37;79.68;98201.06;4934479;28;102892;-71
2024/04/20 01:20:30;;;;;;;9.77;1.55;;;;;;;4.24;79.59;98193.47;4896453;28;102855;-71
2024/04/20 01:22:58;;;;;;;9.27;2.30;;;;;;;4.25;79.06;98200.38;4926271;28;105297;-69
2024/04/20 01:25:27;;;;;;;10.13;1.60;;;;;;;4.36;79.39;98196.75;4901950;28;103547;-71
2024/04/20 01:27:53;;;;;;;5.20;1.35;;;;;;;4.19;79.78;98206.16;4905839;28;102919;-70
2024/04/20 01:30:19;;;;;;;10.38;2.05;;;;;;;4.30;79.37;98210.47;4900173;28;102774;-71
2024/04/20 01:32:45;;;;;;;8.63;1.42;;;;;;;4.21;79.36;98206.06;4917951;28;103716;-71
2024/04/20 01:35:13;;;;;;;8.77;1.80;;;;;;;4.18;79.32;98219.41;4922104;28;103532;-71
2024/04/20 01:37:39;;;;;;;6.95;1.80;;;;;;;4.30;79.58;98219.13;4935313;28;102750;-71
2024/04/20 01:40:05;;;;;;;7.05;1.60;;;;;;;4.19;79.90;98221.09;4904932;28;104130;-71
2024/04/20 01:42:33;;;;;;;6.95;1.65;;;;;;;4.25;79.91;98225.78;4906911;28;103808;-70
2024/04/20 01:44:59;;;;;;;9.38;1.30;;;;;;;4.23;79.68;98228.53;4920978;28;103416;-71
2024/04/20 01:47:28;;;;;;;7.20;1.50;;;;;;;4.22;79.43;98231.28;4901194;28;104005;-71
2024/04/20 01:49:54;;;;;;;5.32;1.45;;;;;;;4.29;78.95;98230.59;4948974;28;103346;-70
2024/04/20 01:52:20;;;;;;;6.28;1.27;;;;;;;4.29;79.30;98235.84;4920036;28;104598;-71
2024/04/20 01:54:46;;;;;;;5.90;1.33;;;;;;;4.27;78.72;98234.31;4921974;28;104006;-70
2024/04/20 01:57:12;;;;;;;9.85;1.67;;;;;;;4.36;79.01;98236.09;4917539;28;103256;-71
2024/04/20 01:59:40;;;;;;;8.40;1.50;;;;;;;4.29;78.98;98235.00;4919120;28;104540;-72
2024/04/20 02:02:06;;;;;;;10.20;1.77;;;;;;;4.35;79.13;98231.84;4904858;28;104561;-71
2024/04/20 02:04:34;;;;;;;5.20;1.42;;;;;;;4.29;79.68;98232.41;4902894;28;103874;-71
2024/04/20 02:06:59;;;;;;;9.45;2.13;;;;;;;4.24;79.49;98234.59;4920310;28;106264;-70
2024/04/20 02:09:25;;;;;;;9.93;2.20;;;;;;;4.21;79.18;98232.28;4904675;28;103613;-71
2024/04/20 02:11:51;;;;;;;8.15;1.67;;;;;;;4.35;78.99;98239.72;4919299;28;103278;-62
2024/04/20 02:14:17;;;;;;;7.70;1.67;;;;;;;4.37;78.72;98244.81;4904841;28;104606;-63
2024/04/20 02:16:43;;;;;;;13.30;1.50;;;;;;;4.29;79.02;98238.44;4898778;28;102914;-63
2024/04/20 02:19:09;;;;;;;7.95;1.92;;;;;;;4.33;79.11;98241.63;4917700;28;102828;-63
2024/04/20 02:21:34;;;;;;;6.85;1.60;;;;;;;4.38;79.13;98236.78;4923657;28;104013;-63
2024/04/20 02:24:00;;;;;;;12.68;1.80;;;;;;;4.32;78.85;98247.84;4915993;28;105677;-63
2024/04/20 02:26:26;;;;;;;9.20;1.60;;;;;;;4.31;78.66;98243.59;4889217;28;102806;-63
2024/04/20 02:28:52;;;;;;;8.57;1.95;;;;;;;4.40;78.37;98240.13;4912040;28;103831;-63
2024/04/20 02:31:18;;;;;;;12.68;2.08;;;;;;;4.38;78.71;98244.66;4916378;28;103305;-62
2024/04/20 02:33:44;;;;;;;13.38;2.00;;;;;;;4.27;78.71;98244.81;4897587;28;103748;-63
2024/04/20 02:36:10;;;;;;;7.03;1.70;;;;;;;4.39;79.29;98250.72;4921969;28;102854;-63
2024/04/20 02:38:35;;;;;;;5.53;1.33;;;;;;;4.24;78.19;98252.94;4917852;28;103630;-63
2024/04/20 02:41:01;;;;;;;8.48;1.60;;;;;;;4.26;78.54;98253.66;4907091;28;103636;-63
2024/04/20 02:43:27;;;;;;;10.85;1.35;;;;;;;4.31;78.54;98256.69;4918676;28;103139;-63
2024/04/20 02:45:53;;;;;;;8.88;2.03;;;;;;;4.26;78.61;98264.13;4921649;28;102782;-63
2024/04/20 02:48:19;;;;;;;9.60;1.80;;;;;;;4.22;78.37;98273.22;4915164;28;103817;-63
2024/04/20 02:50:44;;;;;;;9.93;1.63;;;;;;;4.20;77.67;98269.94;4919643;28;104322;-63
2024/04/20 02:53:10;;;;;;;9.63;1.40;;;;;;;4.23;77.98;98265.25;4919166;28;105268;-63
2024/04/20 02:55:36;;;;;;;14.90;1.98;;;;;;;4.17;78.38;98267.56;4918652;28;103449;-63
2024/04/20 02:58:04;;;;;;;9.88;1.85;;;;;;;4.25;78.62;98275.59;4913881;28;103954;-63
2024/04/20 03:00:30;;;;;;;7.38;1.77;;;;;;;4.14;78.42;98273.94;4934049;28;105004;-63
2024/04/20 03:02:56;;;;;;;9.30;1.35;;;;;;;4.15;78.36;98271.19;4915830;28;103012;-63
2024/04/20 03:05:27;;;;;;;8.90;2.38;;;;;;;4.07;78.21;98276.25;4917075;28;103055;-62
2024/04/20 03:07:52;;;;;;;10.13;2.03;;;;;;;3.88;78.78;98269.22;4945299;28;102951;-62
2024/04/20 03:10:18;;;;;;;10.90;2.20;;;;;;;4.05;79.32;98272.97;4919559;28;103828;-62
2024/04/20 03:12:44;;;;;;;17.00;1.80;;;;;;;3.93;79.03;98274.88;4920562;28;103165;-62
2024/04/20 03:15:10;;;;;;;13.18;1.60;;;;;;;3.99;78.52;98278.75;4918880;28;102838;-62
2024/04/20 03:17:36;;;;;;;13.05;2.05;;;;;;;3.91;78.83;98278.59;4915192;28;102836;-62
2024/04/20 03:20:02;;;;;;;11.10;1.88;;;;;;;3.94;78.84;98286.19;4911926;28;105621;-63
2024/04/20 03:22:28;;;;;;;9.32;1.85;;;;;;;3.97;78.26;98288.53;4897825;28;103174;-63
2024/04/20 03:24:54;;;;;;;9.65;1.40;;;;;;;4.06;78.57;98290.34;4918496;28;102791;-63
2024/04/20 03:27:20;;;;;;;12.98;2.05;;;;;;;4.09;77.94;98292.69;4914967;28;103041;-63
2024/04/20 03:29:46;;;;;;;9.48;1.70;;;;;;;4.01;78.20;98297.78;4885133;28;105906;-63
2024/04/20 03:32:14;;;;;;;11.00;1.95;;;;;;;4.09;78.30;98295.31;4915365;28;103717;-63
2024/04/20 03:34:40;;;;;;;11.38;1.75;;;;;;;4.15;78.45;98299.16;4901138;28;102701;-63
2024/04/20 03:37:19;;;;;;;9.30;1.83;;;;;;;3.96;79.27;98305.22;4915885;28;102790;-63
2024/04/20 03:39:45;;;;;;;9.32;1.63;;;;;;;3.95;78.52;98309.63;4919343;28;103540;-63
2024/04/20 03:42:11;;;;;;;7.68;1.70;;;;;;;3.97;78.34;98314.75;4919937;28;103237;-63
2024/04/20 03:44:39;;;;;;;10.68;1.95;;;;;;;4.01;78.84;98317.91;4919965;28;102719;-63
2024/04/20 03:47:06;;;;;;;8.07;1.92;;;;;;;3.96;78.51;98323.56;4910228;28;102793;-63
2024/04/20 03:49:32;;;;;;;7.88;1.73;;;;;;;4.11;78.85;98327.47;4913891;28;105327;-63
2024/04/20 03:51:57;;;;;;;12.27;2.03;;;;;;;4.01;78.74;98334.47;4917165;28;103215;-62
2024/04/20 03:54:23;;;;;;;7.00;1.65;;;;;;;4.12;78.85;98336.97;4915405;28;102815;-63
2024/04/20 03:56:49;;;;;;;13.23;1.92;;;;;;;4.09;78.62;98337.25;4900688;28;102805;-63
2024/04/20 03:59:15;;;;;;;12.75;1.92;;;;;;;3.93;78.56;98347.41;4913967;28;103578;-63
2024/04/20 04:01:40;;;;;;;10.38;1.70;;;;;;;4.06;79.13;98350.63;4892265;28;104116;-63
2024/04/20 04:04:06;;;;;;;15.55;2.08;;;;;;;4.10;78.76;98352.00;4932321;28;102781;-63
2024/04/20 04:06:32;;;;;;;10.90;2.38;;;;;;;4.15;78.34;98355.06;4882517;28;103728;-63
2024/04/20 04:08:59;;;;;;;13.38;2.50;;;;;;;3.98;78.03;98355.69;4904614;28;104508;-62
2024/04/20 04:11:25;;;;;;;8.85;1.70;;;;;;;4.00;78.65;98359.03;4908363;28;104768;-63
2024/04/20 04:13:56;;;;;;;15.70;2.05;;;;;;;3.99;79.29;98359.97;4908177;28;102751;-63
2024/04/20 04:16:24;;;;;;;16.88;1.77;;;;;;;4.05;78.34;98366.47;4889762;28;106038;-62
2024/04/20 04:18:50;;;;;;;8.52;2.05;;;;;;;4.10;78.72;98375.59;4890332;28;103487;-71
2024/04/20 04:21:18;;;;;;;9.15;1.73;;;;;;;4.11;78.35;98371.16;4901509;28;106157;-71
2024/04/20 04:23:44;;;;;;;7.82;1.83;;;;;;;4.20;78.66;98369.53;4892188;28;102771;-71
2024/04/20 04:26:10;;;;;;;13.45;1.88;;;;;;;4.18;78.55;98379.31;4907711;28;103409;-71
2024/04/20 04:28:36;;;;;;;9.13;1.85;;;;;;;4.11;79.38;98382.50;4894724;28;103646;-72
2024/04/20 04:31:04;;;;;;;11.38;2.35;;;;;;;3.98;80.17;98387.13;4914743;28;103189;-71
2024/04/20 04:33:30;;;;;;;10.95;2.30;;;;;;;3.93;80.14;98390.19;4919369;28;103123;-63
2024/04/20 04:36:02;;;;;;;8.80;2.13;;;;;;;3.93;81.09;98395.41;4897486;28;103722;-69
2024/04/20 04:38:28;;;;;;;12.68;1.98;;;;;;;3.86;81.57;98409.19;4905388;28;104272;-71
2024/04/20 04:40:54;;;;;;;15.68;2.30;;;;;;;3.64;82.50;98400.53;4901154;28;103506;-72
2024/04/20 04:43:22;;;;;;;11.80;2.53;;;;;;;3.73;82.18;98414.63;4889848;28;102772;-71
2024/04/20 04:45:48;;;;;;;10.63;1.80;;;;;;;3.74;82.58;98422.34;4907624;28;103024;-71
2024/04/20 04:48:18;;;;;;;10.98;2.05;;;;;;;3.61;82.82;98427.81;4911015;28;103531;-63
2024/04/20 04:50:44;;;;;;;9.95;1.80;;;;;;;3.63;82.72;98430.31;4895020;28;103559;-63
2024/04/20 04:53:10;;;;;;;9.25;1.70;;;;;;;3.80;82.61;98428.88;4895459;28;104543;-63
2024/04/20 04:55:36;;;;;;;6.47;1.52;;;;;;;3.43;82.27;98440.69;4914179;28;103335;-64
2024/04/20 04:58:04;;;;;;;7.50;1.67;;;;;;;3.26;82.63;98439.47;4910882;28;103221;-65
2024/04/20 05:00:30;;;;;;;7.80;1.85;;;;;;;3.29;82.97;98444.44;4891113;28;103536;-64
2024/04/20 05:02:56;;;;;;;13.15;1.65;;;;;;;3.40;82.86;98448.78;4889736;28;102854;-65
2024/04/20 05:05:22;;;;;;;6.63;1.40;;;;;;;3.27;83.23;98445.53;4915936;28;102830;-64
2024/04/20 05:07:52;;;;;;;7.13;1.77;;;;;;;3.39;82.44;98452.34;4895859;28;103636;-64
2024/04/20 05:10:19;;;;;;;8.93;2.22;;;;;;;3.47;82.41;98452.56;4894889;28;103475;-70
2024/04/20 05:12:45;;;;;;;6.32;1.70;;;;;;;3.70;82.23;98451.56;4891589;28;103736;-71
2024/04/20 05:15:10;;;;;;;5.57;1.52;;;;;;;3.87;82.06;98458.81;4908108;28;103379;-64
2024/04/20 05:17:39;;;;;;;5.70;1.23;;;;;;;3.71;81.80;98459.31;4897813;28;106047;-71
2024/04/20 05:20:06;;;;;;;4.90;1.30;;;;;;;3.68;82.20;98458.72;4897084;28;106701;-71
2024/04/20 05:22:34;;;;;;;8.48;1.55;;;;;;;3.86;81.49;98454.53;4916136;28;103688;-71
2024/04/20 05:25:00;;;;;;;4.72;1.35;;;;;;;3.89;81.07;98456.06;4892293;28;102825;-71
2024/04/20 05:27:26;;;;;;;5.38;1.38;;;;;;;3.84;81.74;98460.88;4887455;28;105601;-71
2024/04/20 05:29:52;;;;;;;7.88;1.85;;;;;;;3.89;81.90;98456.91;4906698;28;105299;-70
2024/04/20 05:32:21;;;;;;;6.45;1.80;;;;;;;3.99;81.47;98467.41;4895603;28;103061;-70
2024/04/20 05:34:47;;;;;;;5.95;1.58;;;;;;;3.95;81.69;98464.22;4910098;28;103854;-71
2024/04/20 05:37:13;;;;;;;12.52;2.53;;;;;;;3.92;81.44;98476.78;4891850;28;105475;-71
2024/04/20 05:39:39;;;;;;;7.63;1.50;;;;;;;3.92;81.13;98482.03;4877467;28;104408;-72
2024/04/20 05:42:07;;;;;;;9.50;1.98;;;;;;;3.92;80.63;98476.78;4884796;28;103909;-71
2024/04/20 05:44:33;;;;;;;7.78;1.67;;;;;;;3.95;80.41;98487.00;4906019;28;103128;-70
2024/04/20 05:47:01;;;;;;;4.75;1.77;;;;;;;4.10;80.09;98490.06;4906915;28;105422;-71
2024/04/20 05:49:27;;;;;;;8.52;2.20;;;;;;;4.32;80.06;98491.66;4912616;28;103142;-70
2024/04/20 05:51:53;;;;;;;9.25;1.88;;;;;;;4.12;80.91;98494.22;4913033;28;103185;-71
2024/04/20 05:54:19;;;;;;;11.90;2.03;;;;;;;4.00;80.66;98500.53;4912619;28;102912;-71
2024/04/20 05:56:47;;;;;;;7.18;2.22;;;;;;;3.95;80.75;98507.94;4903884;28;103599;-71
2024/04/20 05:59:13;;;;;;;6.72;1.73;;;;;;;3.91;80.85;98511.78;4897204;28;105259;-71
2024/04/20 06:01:39;;;;;;;8.10;1.60;;;;;;;4.34;81.35;98508.09;4878155;28;105288;-70
2024/04/20 06:04:05;;;;;;;4.95;1.77;;;;;;;4.64;79.26;98519.53;4870728;28;102925;-70
2024/04/20 06:06:31;;;;;;;4.88;1.70;;;;;;;4.49;79.42;98516.44;4889112;28;103172;-71
2024/04/20 06:08:56;;;;;;;4.72;1.52;;;;;;;4.41;79.19;98524.13;4898740;28;104044;-70
2024/04/20 06:11:22;;;;;;;8.25;2.05;;;;;;;4.67;78.67;98515.78;4905795;28;102807;-71
2024/04/20 06:13:48;;;;;;;7.05;1.90;;;;;;;4.40;78.55;98520.69;4912730;28;102774;-70
2024/04/20 06:16:16;;;;;;;8.18;2.13;;;;;;;4.55;78.26;98528.19;4900209;28;106116;-70
2024/04/20 06:18:42;;;;;;;3.67;1.45;;;;;;;4.66;78.48;98533.31;4909578;28;105301;-70
2024/04/20 06:21:07;;;;;;;7.85;1.70;;;;;;;4.40;77.82;98536.44;4934056;28;102904;-70
2024/04/20 06:23:34;;;;;;;5.85;1.58;;;;;;;4.73;78.66;98536.22;4903995;28;102834;-70
2024/04/20 06:26:00;;;;;;;6.55;1.67;;;;;;;4.53;76.99;98537.97;4920430;28;106119;-70
2024/04/20 06:28:26;;;;;;;7.60;1.70;;;;;;;4.75;78.01;98535.13;4902803;28;104349;-71
2024/04/20 06:30:53;;;;;;;9.68;1.80;;;;;;;4.79;76.81;98543.56;4906358;28;102787;-70
2024/04/20 06:33:19;;;;;;;7.13;1.50;;;;;;;5.06;77.03;98534.22;4921176;28;102849;-63
2024/04/20 06:35:45;;;;;;;6.75;1.80;;;;;;;5.02;76.75;98538.91;4892955;28;103804;-70
2024/04/20 06:38:11;;;;;;;6.95;1.95;;;;;;;4.78;76.36;98550.63;4901731;28;104234;-63
2024/04/20 06:40:37;;;;;;;6.35;1.60;;;;;;;4.80;76.17;98547.84;4881441;28;103070;-69
2024/04/20 06:43:02;;;;;;;8.60;2.00;;;;;;;4.74;76.04;98557.09;4879913;28;103181;-63
2024/04/20 06:45:28;;;;;;;5.55;1.42;;;;;;;4.86;76.39;98555.19;4898401;28;103240;-70
2024/04/20 06:47:57;;;;;;;7.57;1.90;;;;;;;5.29;75.74;98558.41;4900083;28;104237;-69
2024/04/20 06:50:22;;;;;;;7.00;1.70;;;;;;;5.18;74.59;98558.56;4897864;28;105762;-70
2024/04/20 06:52:48;;;;;;;6.03;1.67;;;;;;;5.34;74.76;98563.25;4883572;28;102810;-69
2024/04/20 06:55:14;;;;;;;5.65;1.67;;;;;;;5.31;74.32;98559.94;4902741;28;105191;-70
2024/04/20 06:57:40;;;;;;;3.58;1.25;;;;;;;5.45;75.01;98565.72;4903048;28;103120;-63
2024/04/20 07:00:07;;;;;;;6.43;1.80;;;;;;;5.12;73.83;98573.03;4902880;28;102832;-70
2024/04/20 07:02:33;;;;;;;8.10;1.98;;;;;;;5.42;73.63;98572.13;4917683;28;102825;-71
2024/04/20 07:05:01;;;;;;;7.63;1.85;;;;;;;5.58;73.78;98586.47;4904910;28;106020;-64
2024/04/20 07:07:27;;;;;;;4.80;1.58;;;;;;;5.55;72.16;98589.38;4899981;28;103820;-64
2024/04/20 07:09:53;;;;;;;5.93;1.50;;;;;;;5.26;72.65;98593.66;4901605;28;102835;-64
2024/04/20 07:12:19;;;;;;;5.60;1.60;;;;;;;5.36;74.94;98604.19;4900159;28;103081;-63
2024/04/20 07:14:44;;;;;;;5.57;1.67;;;;;;;5.53;72.15;98607.06;4902211;28;103296;-70
2024/04/20 07:17:13;;;;;;;5.25;1.50;;;;;;;5.32;72.68;98602.78;4919580;28;103359;-70
2024/04/20 07:19:41;;;;;;;4.65;1.80;;;;;;;5.43;72.42;98610.53;4919359;28;104067;-64
2024/04/20 07:22:07;;;;;;;3.13;1.52;;;;;;;5.45;71.81;98619.09;4923005;28;103770;-70
2024/04/20 07:24:32;;;;;;;5.90;1.70;;;;;;;5.45;71.31;98628.78;4902750;28;103210;-71
2024/04/20 07:26:59;;;;;;;5.63;1.73;;;;;;;6.17;71.16;98628.50;4905393;28;103791;-71
2024/04/20 07:29:24;;;;;;;7.00;2.10;;;;;;;6.56;69.83;98628.38;4913842;28;102865;-72
2024/04/20 07:31:50;;;;;;;7.38;1.95;;;;;;;6.64;70.38;98625.84;4918408;28;104612;-70
2024/04/20 07:34:31;;;;;;;5.78;2.15;;;;;;;6.88;68.60;98632.44;4878299;28;105309;-70
2024/04/20 07:36:59;;;;;;;6.63;2.20;;;;;;;7.21;68.96;98627.53;4875365;28;105031;-70
2024/04/20 07:39:25;;;;;;;8.52;2.13;;;;;;;7.37;68.72;98640.84;4900001;28;103141;-63
2024/04/20 07:41:52;;;;;;;8.85;1.95;;;;;;;7.44;66.74;98639.28;4893620;28;102829;-64
2024/04/20 07:44:22;;;;;;;6.30;2.00;;;;;;;6.91;68.00;98637.38;4897393;28;103947;-64
2024/04/20 07:47:02;;;;;;;7.65;2.38;;;;;;;6.96;68.12;98648.31;4900701;28;104057;-72
2024/04/20 07:49:34;;;;;;;4.10;2.13;;;;;;;7.25;67.32;98639.41;4924919;28;103677;-64
2024/04/20 07:52:02;;;;;;;8.83;2.30;;;;;;;7.66;66.81;98642.44;4887904;28;103278;-71
2024/04/20 07:54:30;;;;;;;8.02;2.40;;;;;;;7.67;66.85;98640.66;4921990;28;104080;-64
2024/04/20 07:56:56;;;;;;;5.82;2.03;;;;;;;8.21;64.61;98645.88;4908036;28;103439;-64
2024/04/20 07:59:24;;;;;;;6.82;2.35;;;;;;;7.79;65.99;98652.63;4896856;28;102834;-64
2024/04/20 08:01:51;;;;;;;6.90;2.20;;;;;;;7.34;66.63;98664.88;4896837;28;103103;-71
2024/04/20 08:04:17;;;;;;;3.63;1.73;;;;;;;7.44;66.04;98668.28;4907321;28;103210;-64
2024/04/20 08:06:42;;;;;;;9.73;1.83;;;;;;;7.61;64.37;98665.78;4900199;28;103777;-71
2024/04/20 08:09:10;;;;;;;8.20;1.90;;;;;;;7.88;63.58;98674.63;4907703;28;102881;-71
2024/04/20 08:11:36;;;;;;;9.77;2.15;;;;;;;8.48;61.59;98671.31;4913743;28;102846;-71
2024/04/20 08:14:05;;;;;;;6.30;2.00;;;;;;;8.69;62.17;98665.66;4915261;28;105498;-71
2024/04/20 08:16:31;;;;;;;11.25;1.83;;;;;;;8.42;62.61;98675.38;4916976;28;103534;-73
2024/04/20 08:18:56;;;;;;;5.20;1.65;;;;;;;7.05;61.34;98680.81;4899255;28;102844;-72
2024/04/20 08:21:22;;;;;;;5.35;1.83;;;;;;;7.14;62.49;98688.69;4914888;28;103319;-73
2024/04/20 08:23:48;;;;;;;6.18;1.80;;;;;;;7.76;63.00;98679.28;4904936;28;105065;-73
2024/04/20 08:26:15;;;;;;;5.82;1.88;;;;;;;7.62;62.12;98688.53;4888092;28;104359;-72
2024/04/20 08:28:43;;;;;;;5.25;1.50;;;;;;;7.56;63.47;98691.75;4887582;28;103697;-72
2024/04/20 08:31:09;;;;;;;8.05;3.10;;;;;;;6.74;64.53;98705.59;4897289;28;102780;-64
2024/04/20 08:33:35;;;;;;;11.07;5.03;;;;;;;6.75;62.16;98707.28;4899611;28;103319;-72
2024/04/20 08:36:01;;;;;;;9.85;2.50;;;;;;;6.88;62.79;98706.13;4874016;28;103301;-71
2024/04/20 08:38:28;;;;;;;5.50;1.60;;;;;;;7.17;61.03;98710.47;4907477;28;102770;-70
2024/04/20 08:41:02;;;;;;;4.40;1.50;;;;;;;7.41;63.18;98712.53;4911444;28;103636;-63
2024/04/20 08:43:29;;;;;;;6.95;1.85;;;;;;;6.94;65.17;98716.06;4884616;28;107922;-64
2024/04/20 08:46:02;;;;;;;5.82;1.95;;;;;;;6.85;63.38;98716.94;4888097;28;103214;-72
2024/04/20 08:48:30;;;;;;;6.00;2.03;;;;;;;6.77;65.11;98726.41;4885202;28;104614;-70
2024/04/20 08:51:02;;;;;;;9.52;2.33;;;;;;;6.61;66.19;98734.06;4870930;28;102836;-70
2024/04/20 08:53:31;;;;;;;6.18;2.10;;;;;;;7.09;65.75;98735.69;4896454;28;104336;-72
2024/04/20 08:55:57;;;;;;;4.78;1.90;;;;;;;7.03;65.39;98736.28;4873860;28;106160;-71
2024/04/20 08:58:25;;;;;;;6.15;2.40;;;;;;;8.82;61.15;98725.97;4893749;28;104043;-71
2024/04/20 09:00:57;;;;;;;6.15;2.17;;;;;;;10.24;57.87;98728.88;4895467;28;103795;-71
2024/04/20 09:03:23;;;;;;;6.35;2.15;;;;;;;9.82;54.58;98735.13;4920853;28;111107;-72
2024/04/20 09:05:51;;;;;;;5.93;1.92;;;;;;;10.25;54.48;98730.53;4909279;28;105089;-73
2024/04/20 09:08:18;;;;;;;3.22;1.60;;;;;;;10.20;55.86;98727.56;4906899;28;102868;-71
2024/04/20 09:10:44;;;;;;;5.68;2.25;;;;;;;10.02;55.24;98741.78;4900879;28;103852;-71
2024/04/20 09:13:14;;;;;;;6.45;2.00;;;;;;;9.68;57.63;98740.06;4871134;28;105728;-71
2024/04/20 09:15:44;;;;;;;6.53;1.80;;;;;;;8.63;57.20;98754.25;4884938;28;105484;-64
2024/04/20 09:18:09;;;;;;;6.28;1.92;;;;;;;8.45;57.60;98754.28;4867227;28;103358;-64
2024/04/20 09:20:36;;;;;;;4.20;1.67;;;;;;;8.19;57.50;98766.53;4895935;28;103213;-72
2024/04/20 09:23:06;;;;;;;5.88;2.05;;;;;;;7.47;59.89;98768.13;4914055;28;103190;-65
2024/04/20 09:25:37;;;;;;;5.80;1.85;;;;;;;7.67;56.88;98769.81;4893395;28;103369;-65
2024/04/20 09:28:07;;;;;;;7.00;1.88;;;;;;;7.35;57.89;98765.81;4906464;28;102887;-65
2024/04/20 09:30:33;;;;;;;4.57;1.45;;;;;;;8.40;56.56;98761.78;4902784;28;102821;-64
2024/04/20 09:32:58;;;;;;;5.25;1.50;;;;;;;8.24;56.40;98761.63;4896579;28;104075;-65
2024/04/20 09:35:24;;;;;;;5.50;1.63;;;;;;;7.65;57.36;98767.34;4898090;28;105501;-72
2024/04/20 09:37:53;;;;;;;4.68;1.70;;;;;;;7.35;59.24;98782.47;4896414;28;103285;-65
2024/04/20 09:40:19;;;;;;;8.88;2.20;;;;;;;6.94;59.94;98789.81;4901479;28;102883;-65
2024/04/20 09:42:46;;;;;;;6.47;1.80;;;;;;;7.08;59.50;98797.25;4905785;28;104380;-65
2024/04/20 09:45:13;;;;;;;4.55;1.65;;;;;;;7.14;60.82;98790.59;4910129;28;104385;-65
2024/04/20 09:47:40;;;;;;;4.80;2.15;;;;;;;7.30;59.77;98789.97;4918218;28;103072;-65
2024/04/20 09:50:11;;;;;;;5.63;1.85;;;;;;;7.32;61.31;98779.28;4921133;28;103128;-65
2024/04/20 09:52:51;;;;;;;4.78;1.80;;;;;;;7.76;60.42;98782.94;4915030;28;103399;-64
2024/04/20 09:55:30;;;;;;;4.78;1.90;;;;;;;8.03;60.41;98775.97;4927389;28;104595;-65
2024/04/20 09:58:01;;;;;;;5.13;1.88;;;;;;;9.39;55.85;98772.16;4926057;28;102778;-64
2024/04/20 10:00:30;;;;;;;5.13;1.70;;;;;;;10.01;54.61;98757.78;4898694;28;102897;-65
2024/04/20 10:02:58;;;;;;;4.60;1.15;;;;;;;10.28;50.92;98767.25;4899610;28;105949;-64
2024/04/20 10:05:27;;;;;;;3.30;1.40;;;;;;;10.04;53.08;98760.94;4900733;28;104227;-64
2024/04/20 10:07:53;;;;;;;5.47;1.65;;;;;;;10.88;48.84;98762.63;4902894;28;102831;-73
2024/04/20 10:10:21;;;;;;;2.72;1.52;;;;;;;10.31;48.10;98766.94;4908794;28;103712;-64
2024/04/20 10:12:48;;;;;;;3.22;1.30;;;;;;;9.89;49.91;98773.16;4908075;28;104770;-73
2024/04/20 10:15:14;;;;;;;6.28;1.60;;;;;;;10.19;53.82;98770.88;4888627;28;103389;-72
2024/04/20 10:17:39;;;;;;;5.30;1.95;;;;;;;9.22;55.93;98793.25;4919780;28;103071;-73
2024/04/20 10:20:06;;;;;;;4.68;1.60;;;;;;;8.98;56.38;98790.47;4922312;28;103096;-65
2024/04/20 10:22:38;;;;;;;7.63;2.20;;;;;;;8.53;57.08;98792.25;4908736;28;103172;-65
2024/04/20 10:25:14;;;;;;;5.80;2.28;;;;;;;8.61;58.32;98795.00;4917148;28;103276;-73
2024/04/20 10:27:40;;;;;;;4.68;1.90;;;;;;;9.05;57.22;98781.75;4921156;28;102838;-73
2024/04/20 10:30:18;;;;;;;7.30;2.00;;;;;;;9.29;53.11;98783.69;4926709;28;103290;-73
2024/04/20 10:32:44;;;;;;;4.72;1.52;;;;;;;9.62;52.04;98777.72;4923576;28;103412;-73
2024/04/20 10:35:10;;;;;;;5.40;1.52;;;;;;;8.68;54.88;98782.00;4917230;28;103222;-73
2024/04/20 10:37:36;;;;;;;6.05;2.17;;;;;;;8.75;56.00;98781.22;4905292;28;103141;-73
2024/04/20 10:40:13;;;;;;;5.75;1.50;;;;;;;8.72;54.15;98781.50;4926340;28;102720;-72
2024/04/20 10:42:42;;;;;;;5.55;1.60;;;;;;;8.61;56.63;98784.44;4924737;28;103485;-72
2024/04/20 10:45:12;;;;;;;5.90;1.80;;;;;;;9.29;56.28;98788.16;4920851;28;103814;-65
2024/04/20 10:47:38;;;;;;;7.50;2.13;;;;;;;9.09;56.94;98788.38;4918382;28;102802;-66
2024/04/20 10:50:10;;;;;;;6.35;1.85;;;;;;;9.41;56.52;98791.34;4911951;28;103187;-66
2024/04/20 10:52:36;;;;;;;4.47;2.10;;;;;;;9.54;55.89;98796.19;4922260;28;103308;-66
2024/04/20 10:55:13;;;;;;;4.13;1.55;;;;;;;9.30;56.08;98792.44;4921370;28;103466;-66
2024/04/20 10:57:39;;;;;;;4.35;1.60;;;;;;;9.39;56.08;98788.88;4895618;28;102883;-74
2024/04/20 11:00:05;;;;;;;6.30;1.60;;;;;;;9.67;54.77;98793.09;4919045;28;102800;-73
2024/04/20 11:02:31;;;;;;;4.13;1.92;;;;;;;9.75;56.78;98793.94;4924105;28;103414;-66
2024/04/20 11:04:58;;;;;;;10.93;2.05;;;;;;;9.13;54.20;98810.84;4921090;28;103724;-66
2024/04/20 11:07:26;;;;;;;9.18;3.75;;;;;;;8.56;56.52;98813.09;4905198;28;102944;-66
2024/04/20 11:09:52;;;;;;;7.82;1.92;;;;;;;8.77;56.54;98816.22;4920443;28;102835;-66
2024/04/20 11:12:19;;;;;;;5.18;1.85;;;;;;;8.75;55.51;98818.19;4902481;28;103404;-66
2024/04/20 11:14:45;;;;;;;8.23;1.73;;;;;;;8.09;57.21;98828.13;4899322;28;105354;-65
2024/04/20 11:17:11;;;;;;;5.95;1.77;;;;;;;9.16;54.09;98820.28;4896380;28;103122;-65
2024/04/20 11:19:40;;;;;;;6.05;1.92;;;;;;;9.05;55.97;98818.75;4920129;28;102844;-66
2024/04/20 11:22:13;;;;;;;5.20;1.63;;;;;;;8.86;54.40;98825.03;4937555;28;104379;-66
2024/04/20 11:24:39;;;;;;;6.15;2.63;;;;;;;9.09;54.09;98827.16;4916724;28;105503;-65
2024/04/20 11:27:13;;;;;;;5.90;1.67;;;;;;;8.89;53.54;98823.91;4900753;28;102725;-65
2024/04/20 11:29:39;;;;;;;5.93;1.90;;;;;;;8.55;55.76;98833.38;4904905;28;104165;-74
2024/04/20 11:32:06;;;;;;;5.38;1.60;;;;;;;8.79;53.97;98824.81;4919148;28;103555;-74